sensor_id;sensor_type;location;lat;lon;timestamp;temperature;humidity
2220;DHT22;1116;51.502;7.414;2024-02-04T00:01:17;11.00;99.90
2220;DHT22;1116;51.502;7.414;2024-02-04T00:03:47;11.00;99.90
2220;DHT22;1116;51.502;7.414;2024-02-04T00:06:16;10.90;99.90
2220;DHT22;1116;51.502;7.414;2024-02-04T00:08:46;10.90;99.90
2220;DHT22;1116;51.502;7.414;2024-02-04T00:11:16;10.90;99.90
2220;DHT22;1116;51.502;7.414;2024-02-04T00:13:45;11.00;99.90
2220;DHT22;1116;51.502;7.414;2024-02-04T00:16:17;11.00;99.90
2220;DHT22;1116;51.502;7.414;2024-02-04T00:18:47;10.90;99.90
2220;DHT22;1116;51.502;7.414;2024-02-04T00:21:17;10.90;99.90
2220;DHT22;1116;51.502;7.414;2024-02-04T00:23:47;11.00;99.90
2220;DHT22;1116;51.502;7.414;2024-02-04T00:26:17;10.90;99.90
2220;DHT22;1116;51.502;7.414;2024-02-04T00:28:58;10.90;99.90
2220;DHT22;1116;51.502;7.414;2024-02-04T00:31:30;10.90;99.90
2220;DHT22;1116;51.502;7.414;2024-02-04T00:34:00;10.90;99.90
2220;DHT22;1116;51.502;7.414;2024-02-04T00:36:31;10.90;99.90
2220;DHT22;1116;51.502;7.414;2024-02-04T00:39:01;10.90;99.90
2220;DHT22;1116;51.502;7.414;2024-02-04T00:41:31;10.90;99.90
2220;DHT22;1116;51.502;7.414;2024-02-04T00:44:01;10.90;99.90
2220;DHT22;1116;51.502;7.414;2024-02-04T00:46:34;10.90;99.90
2220;DHT22;1116;51.502;7.414;2024-02-04T00:49:05;10.90;99.90
2220;DHT22;1116;51.502;7.414;2024-02-04T00:51:35;10.80;99.90
2220;DHT22;1116;51.502;7.414;2024-02-04T00:54:07;10.80;99.90
2220;DHT22;1116;51.502;7.414;2024-02-04T00:56:37;10.80;99.90
2220;DHT22;1116;51.502;7.414;2024-02-04T00:59:11;10.90;99.90
2220;DHT22;1116;51.502;7.414;2024-02-04T01:01:44;10.80;99.90
2220;DHT22;1116;51.502;7.414;2024-02-04T01:04:17;10.80;99.90
2220;DHT22;1116;51.502;7.414;2024-02-04T01:06:48;10.80;99.90
2220;DHT22;1116;51.502;7.414;2024-02-04T01:09:28;10.80;99.90
2220;DHT22;1116;51.502;7.414;2024-02-04T01:11:59;10.90;99.90
2220;DHT22;1116;51.502;7.414;2024-02-04T01:14:30;10.90;99.90
2220;DHT22;1116;51.502;7.414;2024-02-04T01:17:02;10.90;99.90
2220;DHT22;1116;51.502;7.414;2024-02-04T01:19:34;10.90;99.90
2220;DHT22;1116;51.502;7.414;2024-02-04T01:22:06;10.80;99.90
2220;DHT22;1116;51.502;7.414;2024-02-04T01:24:36;10.70;99.90
2220;DHT22;1116;51.502;7.414;2024-02-04T01:27:05;10.80;99.90
2220;DHT22;1116;51.502;7.414;2024-02-04T01:29:45;10.70;99.90
2220;DHT22;1116;51.502;7.414;2024-02-04T01:32:33;10.70;99.90
2220;DHT22;1116;51.502;7.414;2024-02-04T01:35:04;10.80;99.90
2220;DHT22;1116;51.502;7.414;2024-02-04T01:37:33;10.90;99.90
2220;DHT22;1116;51.502;7.414;2024-02-04T01:40:04;10.90;99.90
2220;DHT22;1116;51.502;7.414;2024-02-04T01:42:35;10.80;99.90
2220;DHT22;1116;51.502;7.414;2024-02-04T01:45:05;10.80;99.90
2220;DHT22;1116;51.502;7.414;2024-02-04T01:47:38;10.80;99.90
2220;DHT22;1116;51.502;7.414;2024-02-04T01:50:09;10.90;99.90
2220;DHT22;1116;51.502;7.414;2024-02-04T01:52:39;10.80;99.90
2220;DHT22;1116;51.502;7.414;2024-02-04T01:55:10;10.90;99.90
2220;DHT22;1116;51.502;7.414;2024-02-04T01:57:40;10.70;99.90
2220;DHT22;1116;51.502;7.414;2024-02-04T02:00:10;10.70;99.90
2220;DHT22;1116;51.502;7.414;2024-02-04T02:02:43;10.80;99.90
2220;DHT22;1116;51.502;7.414;2024-02-04T02:05:15;10.80;99.90
2220;DHT22;1116;51.502;7.414;2024-02-04T02:07:45;10.80;99.90
2220;DHT22;1116;51.502;7.414;2024-02-04T02:10:18;10.80;99.90
2220;DHT22;1116;51.502;7.414;2024-02-04T02:12:51;10.80;99.90
2220;DHT22;1116;51.502;7.414;2024-02-04T02:15:23;10.80;99.90
2220;DHT22;1116;51.502;7.414;2024-02-04T02:17:57;10.90;99.90
2220;DHT22;1116;51.502;7.414;2024-02-04T02:20:29;10.90;99.90
2220;DHT22;1116;51.502;7.414;2024-02-04T02:23:03;10.90;99.90
2220;DHT22;1116;51.502;7.414;2024-02-04T02:25:38;10.90;99.90
2220;DHT22;1116;51.502;7.414;2024-02-04T02:28:06;11.00;99.90
2220;DHT22;1116;51.502;7.414;2024-02-04T02:30:36;11.00;99.90
2220;DHT22;1116;51.502;7.414;2024-02-04T02:33:06;10.90;99.90
2220;DHT22;1116;51.502;7.414;2024-02-04T02:35:36;10.90;99.90
2220;DHT22;1116;51.502;7.414;2024-02-04T02:38:07;10.90;99.90
2220;DHT22;1116;51.502;7.414;2024-02-04T02:40:43;10.90;99.90
2220;DHT22;1116;51.502;7.414;2024-02-04T02:43:14;10.90;99.90
2220;DHT22;1116;51.502;7.414;2024-02-04T02:45:44;11.00;99.90
2220;DHT22;1116;51.502;7.414;2024-02-04T02:48:14;11.00;99.90
2220;DHT22;1116;51.502;7.414;2024-02-04T02:50:44;11.00;99.90
2220;DHT22;1116;51.502;7.414;2024-02-04T02:53:14;11.00;99.90
2220;DHT22;1116;51.502;7.414;2024-02-04T02:55:49;11.10;99.90
2220;DHT22;1116;51.502;7.414;2024-02-04T02:58:18;11.00;99.90
2220;DHT22;1116;51.502;7.414;2024-02-04T03:00:48;11.00;99.90
2220;DHT22;1116;51.502;7.414;2024-02-04T03:03:18;11.00;99.90
2220;DHT22;1116;51.502;7.414;2024-02-04T03:05:48;11.00;99.90
2220;DHT22;1116;51.502;7.414;2024-02-04T03:08:18;11.10;99.90
2220;DHT22;1116;51.502;7.414;2024-02-04T03:10:50;11.10;99.90
2220;DHT22;1116;51.502;7.414;2024-02-04T03:13:20;11.00;99.90
2220;DHT22;1116;51.502;7.414;2024-02-04T03:15:49;11.00;99.90
2220;DHT22;1116;51.502;7.414;2024-02-04T03:18:19;11.10;99.90
2220;DHT22;1116;51.502;7.414;2024-02-04T03:20:49;11.10;99.90
2220;DHT22;1116;51.502;7.414;2024-02-04T03:23:18;11.00;99.90
2220;DHT22;1116;51.502;7.414;2024-02-04T03:25:52;11.10;99.90
2220;DHT22;1116;51.502;7.414;2024-02-04T03:28:21;11.00;99.90
2220;DHT22;1116;51.502;7.414;2024-02-04T03:30:52;11.00;99.90
2220;DHT22;1116;51.502;7.414;2024-02-04T03:33:22;11.00;99.90
2220;DHT22;1116;51.502;7.414;2024-02-04T03:35:53;11.00;99.90
2220;DHT22;1116;51.502;7.414;2024-02-04T03:38:22;11.00;99.90
2220;DHT22;1116;51.502;7.414;2024-02-04T03:41:00;11.10;99.90
2220;DHT22;1116;51.502;7.414;2024-02-04T03:43:30;11.10;99.90
2220;DHT22;1116;51.502;7.414;2024-02-04T03:46:01;11.10;99.90
2220;DHT22;1116;51.502;7.414;2024-02-04T03:48:33;11.10;99.90
2220;DHT22;1116;51.502;7.414;2024-02-04T03:51:03;11.00;99.90
2220;DHT22;1116;51.502;7.414;2024-02-04T03:53:33;11.00;99.90
2220;DHT22;1116;51.502;7.414;2024-02-04T03:56:05;11.00;99.90
2220;DHT22;1116;51.502;7.414;2024-02-04T03:58:35;11.00;99.90
2220;DHT22;1116;51.502;7.414;2024-02-04T04:01:05;11.00;99.90
2220;DHT22;1116;51.502;7.414;2024-02-04T04:03:34;11.10;99.90
2220;DHT22;1116;51.502;7.414;2024-02-04T04:06:04;11.10;99.90
2220;DHT22;1116;51.502;7.414;2024-02-04T04:08:34;11.10;99.90
2220;DHT22;1116;51.502;7.414;2024-02-04T04:11:07;11.10;99.90
2220;DHT22;1116;51.502;7.414;2024-02-04T04:13:36;11.10;99.90
2220;DHT22;1116;51.502;7.414;2024-02-04T04:16:06;11.20;99.90
2220;DHT22;1116;51.502;7.414;2024-02-04T04:18:38;11.20;99.90
2220;DHT22;1116;51.502;7.414;2024-02-04T04:21:08;11.20;99.90
2220;DHT22;1116;51.502;7.414;2024-02-04T04:23:38;11.10;99.90
2220;DHT22;1116;51.502;7.414;2024-02-04T04:26:10;11.20;99.90
2220;DHT22;1116;51.502;7.414;2024-02-04T04:28:40;11.20;99.90
2220;DHT22;1116;51.502;7.414;2024-02-04T04:31:10;11.20;99.90
2220;DHT22;1116;51.502;7.414;2024-02-04T04:33:40;11.20;99.90
2220;DHT22;1116;51.502;7.414;2024-02-04T04:36:10;11.20;99.90
2220;DHT22;1116;51.502;7.414;2024-02-04T04:38:40;11.30;99.90
2220;DHT22;1116;51.502;7.414;2024-02-04T04:41:12;11.20;99.90
2220;DHT22;1116;51.502;7.414;2024-02-04T04:43:42;11.20;99.90
2220;DHT22;1116;51.502;7.414;2024-02-04T04:46:12;11.20;99.90
2220;DHT22;1116;51.502;7.414;2024-02-04T04:48:41;11.20;99.90
2220;DHT22;1116;51.502;7.414;2024-02-04T04:51:11;11.20;99.90
2220;DHT22;1116;51.502;7.414;2024-02-04T04:53:41;11.20;99.90
2220;DHT22;1116;51.502;7.414;2024-02-04T04:56:13;11.20;99.90
2220;DHT22;1116;51.502;7.414;2024-02-04T04:58:43;11.20;99.90
2220;DHT22;1116;51.502;7.414;2024-02-04T05:01:12;11.20;99.90
2220;DHT22;1116;51.502;7.414;2024-02-04T05:03:42;11.20;99.90
2220;DHT22;1116;51.502;7.414;2024-02-04T05:06:12;11.10;99.90
2220;DHT22;1116;51.502;7.414;2024-02-04T05:08:42;11.20;99.90
2220;DHT22;1116;51.502;7.414;2024-02-04T05:11:17;11.10;99.90
2220;DHT22;1116;51.502;7.414;2024-02-04T05:13:47;11.10;99.90
2220;DHT22;1116;51.502;7.414;2024-02-04T05:16:17;11.10;99.90
2220;DHT22;1116;51.502;7.414;2024-02-04T05:18:46;11.00;99.90
2220;DHT22;1116;51.502;7.414;2024-02-04T05:21:16;11.00;99.90
2220;DHT22;1116;51.502;7.414;2024-02-04T05:23:46;11.00;99.90
2220;DHT22;1116;51.502;7.414;2024-02-04T05:26:19;11.00;99.90
2220;DHT22;1116;51.502;7.414;2024-02-04T05:28:49;11.00;99.90
2220;DHT22;1116;51.502;7.414;2024-02-04T05:31:19;11.00;99.90
2220;DHT22;1116;51.502;7.414;2024-02-04T05:33:48;11.00;99.90
2220;DHT22;1116;51.502;7.414;2024-02-04T05:36:18;11.00;99.90
2220;DHT22;1116;51.502;7.414;2024-02-04T05:38:48;11.00;99.90
2220;DHT22;1116;51.502;7.414;2024-02-04T05:41:20;11.00;99.90
2220;DHT22;1116;51.502;7.414;2024-02-04T05:43:49;11.00;99.90
2220;DHT22;1116;51.502;7.414;2024-02-04T05:46:19;10.90;99.90
2220;DHT22;1116;51.502;7.414;2024-02-04T05:48:49;10.90;99.90
2220;DHT22;1116;51.502;7.414;2024-02-04T05:51:19;10.90;99.90
2220;DHT22;1116;51.502;7.414;2024-02-04T05:53:48;10.90;99.90
2220;DHT22;1116;51.502;7.414;2024-02-04T05:56:21;11.00;99.90
2220;DHT22;1116;51.502;7.414;2024-02-04T05:58:50;11.00;99.90
2220;DHT22;1116;51.502;7.414;2024-02-04T06:01:20;10.90;99.90
2220;DHT22;1116;51.502;7.414;2024-02-04T06:03:50;11.00;99.90
2220;DHT22;1116;51.502;7.414;2024-02-04T06:06:19;11.00;99.90
2220;DHT22;1116;51.502;7.414;2024-02-04T06:08:50;11.00;99.90
2220;DHT22;1116;51.502;7.414;2024-02-04T06:11:22;11.00;99.90
2220;DHT22;1116;51.502;7.414;2024-02-04T06:13:52;11.00;99.90
2220;DHT22;1116;51.502;7.414;2024-02-04T06:16:21;10.90;99.90
2220;DHT22;1116;51.502;7.414;2024-02-04T06:18:51;10.90;99.90
2220;DHT22;1116;51.502;7.414;2024-02-04T06:21:22;10.80;99.90
2220;DHT22;1116;51.502;7.414;2024-02-04T06:23:52;10.90;99.90
2220;DHT22;1116;51.502;7.414;2024-02-04T06:26:24;10.80;99.90
2220;DHT22;1116;51.502;7.414;2024-02-04T06:28:54;10.90;99.90
2220;DHT22;1116;51.502;7.414;2024-02-04T06:31:25;10.80;99.90
2220;DHT22;1116;51.502;7.414;2024-02-04T06:33:55;10.80;99.90
2220;DHT22;1116;51.502;7.414;2024-02-04T06:36:25;10.90;99.90
2220;DHT22;1116;51.502;7.414;2024-02-04T06:38:54;10.90;99.90
2220;DHT22;1116;51.502;7.414;2024-02-04T06:41:26;10.90;99.90
2220;DHT22;1116;51.502;7.414;2024-02-04T06:43:57;10.90;99.90
2220;DHT22;1116;51.502;7.414;2024-02-04T06:46:27;11.00;99.90
2220;DHT22;1116;51.502;7.414;2024-02-04T06:48:57;11.00;99.90
2220;DHT22;1116;51.502;7.414;2024-02-04T06:51:28;11.00;99.90
2220;DHT22;1116;51.502;7.414;2024-02-04T06:53:58;10.90;99.90
2220;DHT22;1116;51.502;7.414;2024-02-04T06:56:30;10.90;99.90
2220;DHT22;1116;51.502;7.414;2024-02-04T06:59:03;10.90;99.90
2220;DHT22;1116;51.502;7.414;2024-02-04T07:01:33;10.90;99.90
2220;DHT22;1116;51.502;7.414;2024-02-04T07:04:03;10.90;99.90
2220;DHT22;1116;51.502;7.414;2024-02-04T07:06:33;10.80;99.90
2220;DHT22;1116;51.502;7.414;2024-02-04T07:09:02;10.80;99.90
2220;DHT22;1116;51.502;7.414;2024-02-04T07:11:35;10.90;99.90
2220;DHT22;1116;51.502;7.414;2024-02-04T07:14:07;10.80;99.90
2220;DHT22;1116;51.502;7.414;2024-02-04T07:16:38;10.80;99.90
2220;DHT22;1116;51.502;7.414;2024-02-04T07:19:07;10.90;99.90
2220;DHT22;1116;51.502;7.414;2024-02-04T07:21:37;10.90;99.90
2220;DHT22;1116;51.502;7.414;2024-02-04T07:24:07;10.90;99.90
2220;DHT22;1116;51.502;7.414;2024-02-04T07:26:39;10.90;99.90
2220;DHT22;1116;51.502;7.414;2024-02-04T07:29:09;10.90;99.90
2220;DHT22;1116;51.502;7.414;2024-02-04T07:31:41;10.90;99.90
2220;DHT22;1116;51.502;7.414;2024-02-04T07:34:11;10.90;99.90
2220;DHT22;1116;51.502;7.414;2024-02-04T07:36:42;10.90;99.90
2220;DHT22;1116;51.502;7.414;2024-02-04T07:39:12;10.90;99.90
2220;DHT22;1116;51.502;7.414;2024-02-04T07:41:44;10.90;99.90
2220;DHT22;1116;51.502;7.414;2024-02-04T07:44:14;10.90;99.90
2220;DHT22;1116;51.502;7.414;2024-02-04T07:46:44;11.00;99.90
2220;DHT22;1116;51.502;7.414;2024-02-04T07:49:15;11.00;99.90
2220;DHT22;1116;51.502;7.414;2024-02-04T07:51:45;11.00;99.90
2220;DHT22;1116;51.502;7.414;2024-02-04T07:54:15;10.90;99.90
2220;DHT22;1116;51.502;7.414;2024-02-04T07:56:48;10.90;99.90
2220;DHT22;1116;51.502;7.414;2024-02-04T07:59:22;10.90;99.90
2220;DHT22;1116;51.502;7.414;2024-02-04T08:01:52;11.00;99.90
2220;DHT22;1116;51.502;7.414;2024-02-04T08:04:22;11.00;99.90
2220;DHT22;1116;51.502;7.414;2024-02-04T08:06:52;11.00;99.90
2220;DHT22;1116;51.502;7.414;2024-02-04T08:09:22;11.00;99.90
2220;DHT22;1116;51.502;7.414;2024-02-04T08:11:54;10.90;99.90
2220;DHT22;1116;51.502;7.414;2024-02-04T08:14:25;10.90;99.90
2220;DHT22;1116;51.502;7.414;2024-02-04T08:16:55;11.00;99.90
2220;DHT22;1116;51.502;7.414;2024-02-04T08:19:25;11.00;99.90
2220;DHT22;1116;51.502;7.414;2024-02-04T08:21:55;11.00;99.90
2220;DHT22;1116;51.502;7.414;2024-02-04T08:24:25;11.10;99.90
2220;DHT22;1116;51.502;7.414;2024-02-04T08:26:59;11.00;99.90
2220;DHT22;1116;51.502;7.414;2024-02-04T08:29:30;11.10;99.90
2220;DHT22;1116;51.502;7.414;2024-02-04T08:32:00;11.10;99.90
2220;DHT22;1116;51.502;7.414;2024-02-04T08:34:29;11.00;99.90
2220;DHT22;1116;51.502;7.414;2024-02-04T08:36:59;11.00;99.90
2220;DHT22;1116;51.502;7.414;2024-02-04T08:39:29;11.10;99.90
2220;DHT22;1116;51.502;7.414;2024-02-04T08:42:02;11.00;99.90
2220;DHT22;1116;51.502;7.414;2024-02-04T08:44:31;11.00;99.90
2220;DHT22;1116;51.502;7.414;2024-02-04T08:47:06;11.00;99.90
2220;DHT22;1116;51.502;7.414;2024-02-04T08:49:39;11.10;99.90
2220;DHT22;1116;51.502;7.414;2024-02-04T08:52:09;11.10;99.90
2220;DHT22;1116;51.502;7.414;2024-02-04T08:54:38;11.10;99.90
2220;DHT22;1116;51.502;7.414;2024-02-04T08:57:11;11.10;99.90
2220;DHT22;1116;51.502;7.414;2024-02-04T08:59:41;11.20;99.90
2220;DHT22;1116;51.502;7.414;2024-02-04T09:02:10;11.30;99.90
2220;DHT22;1116;51.502;7.414;2024-02-04T09:04:40;11.20;99.90
2220;DHT22;1116;51.502;7.414;2024-02-04T09:07:10;11.20;99.90
2220;DHT22;1116;51.502;7.414;2024-02-04T09:09:40;11.20;99.90
2220;DHT22;1116;51.502;7.414;2024-02-04T09:12:12;11.20;99.90
2220;DHT22;1116;51.502;7.414;2024-02-04T09:14:42;11.30;99.90
2220;DHT22;1116;51.502;7.414;2024-02-04T09:17:12;11.40;99.90
2220;DHT22;1116;51.502;7.414;2024-02-04T09:19:43;11.30;99.90
2220;DHT22;1116;51.502;7.414;2024-02-04T09:22:13;11.30;99.90
2220;DHT22;1116;51.502;7.414;2024-02-04T09:24:43;11.40;99.90
2220;DHT22;1116;51.502;7.414;2024-02-04T09:27:15;11.30;99.90
2220;DHT22;1116;51.502;7.414;2024-02-04T09:29:45;11.30;99.90
2220;DHT22;1116;51.502;7.414;2024-02-04T09:32:16;11.40;99.90
2220;DHT22;1116;51.502;7.414;2024-02-04T09:34:46;11.30;99.90
2220;DHT22;1116;51.502;7.414;2024-02-04T09:37:17;11.20;99.90
2220;DHT22;1116;51.502;7.414;2024-02-04T09:39:47;11.00;99.90
2220;DHT22;1116;51.502;7.414;2024-02-04T09:42:20;11.00;99.90
2220;DHT22;1116;51.502;7.414;2024-02-04T09:44:51;10.90;99.90
2220;DHT22;1116;51.502;7.414;2024-02-04T09:47:22;11.00;99.90
2220;DHT22;1116;51.502;7.414;2024-02-04T09:49:54;11.00;99.90
2220;DHT22;1116;51.502;7.414;2024-02-04T09:52:26;11.00;99.90
2220;DHT22;1116;51.502;7.414;2024-02-04T09:54:59;11.00;99.90
2220;DHT22;1116;51.502;7.414;2024-02-04T09:57:32;11.10;99.90
2220;DHT22;1116;51.502;7.414;2024-02-04T10:00:03;11.20;99.90
2220;DHT22;1116;51.502;7.414;2024-02-04T10:02:35;11.10;99.90
2220;DHT22;1116;51.502;7.414;2024-02-04T10:05:06;11.10;99.90
2220;DHT22;1116;51.502;7.414;2024-02-04T10:07:38;11.10;99.90
2220;DHT22;1116;51.502;7.414;2024-02-04T10:10:08;11.20;99.90
2220;DHT22;1116;51.502;7.414;2024-02-04T10:12:42;11.20;99.90
2220;DHT22;1116;51.502;7.414;2024-02-04T10:15:11;11.10;99.90
2220;DHT22;1116;51.502;7.414;2024-02-04T10:17:44;11.10;99.90
2220;DHT22;1116;51.502;7.414;2024-02-04T10:20:14;11.10;99.90
2220;DHT22;1116;51.502;7.414;2024-02-04T10:22:46;11.20;99.90
2220;DHT22;1116;51.502;7.414;2024-02-04T10:25:19;11.20;99.90
2220;DHT22;1116;51.502;7.414;2024-02-04T10:27:52;11.20;99.90
2220;DHT22;1116;51.502;7.414;2024-02-04T10:30:21;11.30;99.90
2220;DHT22;1116;51.502;7.414;2024-02-04T10:32:51;11.30;99.90
2220;DHT22;1116;51.502;7.414;2024-02-04T10:35:22;11.30;99.90
2220;DHT22;1116;51.502;7.414;2024-02-04T10:37:52;11.30;99.90
2220;DHT22;1116;51.502;7.414;2024-02-04T10:40:22;11.50;99.90
2220;DHT22;1116;51.502;7.414;2024-02-04T10:42:54;11.50;99.90
2220;DHT22;1116;51.502;7.414;2024-02-04T10:45:25;11.50;99.90
2220;DHT22;1116;51.502;7.414;2024-02-04T10:47:56;11.40;99.90
2220;DHT22;1116;51.502;7.414;2024-02-04T10:50:29;11.40;99.90
2220;DHT22;1116;51.502;7.414;2024-02-04T10:53:01;11.30;99.90
2220;DHT22;1116;51.502;7.414;2024-02-04T10:55:36;11.30;99.90
2220;DHT22;1116;51.502;7.414;2024-02-04T10:58:11;11.30;99.90
2220;DHT22;1116;51.502;7.414;2024-02-04T11:00:42;11.30;99.90
2220;DHT22;1116;51.502;7.414;2024-02-04T11:03:12;11.30;99.90
2220;DHT22;1116;51.502;7.414;2024-02-04T11:05:42;11.30;99.90
2220;DHT22;1116;51.502;7.414;2024-02-04T11:08:12;11.30;99.90
2220;DHT22;1116;51.502;7.414;2024-02-04T11:10:42;11.50;99.90
2220;DHT22;1116;51.502;7.414;2024-02-04T11:13:15;11.60;99.90
2220;DHT22;1116;51.502;7.414;2024-02-04T11:15:45;11.80;99.90
2220;DHT22;1116;51.502;7.414;2024-02-04T11:18:25;11.90;99.90
2220;DHT22;1116;51.502;7.414;2024-02-04T11:21:07;12.00;99.90
2220;DHT22;1116;51.502;7.414;2024-02-04T11:23:47;12.30;99.90
2220;DHT22;1116;51.502;7.414;2024-02-04T11:26:21;12.20;99.90
2220;DHT22;1116;51.502;7.414;2024-02-04T11:28:54;12.00;99.90
2220;DHT22;1116;51.502;7.414;2024-02-04T11:31:27;12.10;99.90
2220;DHT22;1116;51.502;7.414;2024-02-04T11:33:58;12.10;99.90
2220;DHT22;1116;51.502;7.414;2024-02-04T11:36:28;12.10;99.90
2220;DHT22;1116;51.502;7.414;2024-02-04T11:38:58;12.00;99.90
2220;DHT22;1116;51.502;7.414;2024-02-04T11:41:30;11.90;99.90
2220;DHT22;1116;51.502;7.414;2024-02-04T11:44:06;11.80;99.90
2220;DHT22;1116;51.502;7.414;2024-02-04T11:46:37;11.60;99.90
2220;DHT22;1116;51.502;7.414;2024-02-04T11:49:14;11.70;99.90
2220;DHT22;1116;51.502;7.414;2024-02-04T11:51:44;11.70;99.90
2220;DHT22;1116;51.502;7.414;2024-02-04T11:54:15;11.90;99.90
2220;DHT22;1116;51.502;7.414;2024-02-04T11:56:48;12.10;99.90
2220;DHT22;1116;51.502;7.414;2024-02-04T11:59:23;12.30;99.90
2220;DHT22;1116;51.502;7.414;2024-02-04T12:01:53;12.30;99.90
2220;DHT22;1116;51.502;7.414;2024-02-04T12:04:27;12.20;99.90
2220;DHT22;1116;51.502;7.414;2024-02-04T12:06:57;12.20;99.90
2220;DHT22;1116;51.502;7.414;2024-02-04T12:09:27;12.20;99.90
2220;DHT22;1116;51.502;7.414;2024-02-04T12:11:58;12.10;99.90
2220;DHT22;1116;51.502;7.414;2024-02-04T12:14:30;12.00;99.90
2220;DHT22;1116;51.502;7.414;2024-02-04T12:17:06;12.00;99.90
2220;DHT22;1116;51.502;7.414;2024-02-04T12:19:36;11.90;99.90
2220;DHT22;1116;51.502;7.414;2024-02-04T12:22:10;11.90;99.90
2220;DHT22;1116;51.502;7.414;2024-02-04T12:24:40;11.80;99.90
2220;DHT22;1116;51.502;7.414;2024-02-04T12:27:10;11.80;99.90
2220;DHT22;1116;51.502;7.414;2024-02-04T12:29:42;11.80;99.90
2220;DHT22;1116;51.502;7.414;2024-02-04T12:32:13;11.90;99.90
2220;DHT22;1116;51.502;7.414;2024-02-04T12:34:46;11.80;99.90
2220;DHT22;1116;51.502;7.414;2024-02-04T12:37:18;11.70;99.90
2220;DHT22;1116;51.502;7.414;2024-02-04T12:39:48;11.70;99.90
2220;DHT22;1116;51.502;7.414;2024-02-04T12:42:18;11.60;99.90
2220;DHT22;1116;51.502;7.414;2024-02-04T12:44:56;11.70;99.90
2220;DHT22;1116;51.502;7.414;2024-02-04T12:47:30;11.60;99.90
2220;DHT22;1116;51.502;7.414;2024-02-04T12:50:02;11.70;99.90
2220;DHT22;1116;51.502;7.414;2024-02-04T12:52:45;12.00;99.90
2220;DHT22;1116;51.502;7.414;2024-02-04T12:55:38;11.60;99.90
2220;DHT22;1116;51.502;7.414;2024-02-04T12:58:10;11.60;99.90
2220;DHT22;1116;51.502;7.414;2024-02-04T13:00:44;11.60;99.90
2220;DHT22;1116;51.502;7.414;2024-02-04T13:03:15;11.50;99.90
2220;DHT22;1116;51.502;7.414;2024-02-04T13:05:45;11.50;99.90
2220;DHT22;1116;51.502;7.414;2024-02-04T13:08:21;11.60;99.90
2220;DHT22;1116;51.502;7.414;2024-02-04T13:11:20;11.70;99.90
2220;DHT22;1116;51.502;7.414;2024-02-04T13:14:04;11.50;99.90
2220;DHT22;1116;51.502;7.414;2024-02-04T13:16:36;11.50;99.90
2220;DHT22;1116;51.502;7.414;2024-02-04T13:19:07;11.60;99.90
2220;DHT22;1116;51.502;7.414;2024-02-04T13:25:19;11.60;99.90
2220;DHT22;1116;51.502;7.414;2024-02-04T13:27:52;11.60;99.90
2220;DHT22;1116;51.502;7.414;2024-02-04T13:30:26;11.80;99.90
2220;DHT22;1116;51.502;7.414;2024-02-04T13:33:18;11.70;99.90
2220;DHT22;1116;51.502;7.414;2024-02-04T13:35:57;11.60;99.90
2220;DHT22;1116;51.502;7.414;2024-02-04T13:38:38;11.60;99.90
2220;DHT22;1116;51.502;7.414;2024-02-04T13:41:17;11.60;99.90
2220;DHT22;1116;51.502;7.414;2024-02-04T13:43:47;11.60;99.90
2220;DHT22;1116;51.502;7.414;2024-02-04T13:46:17;11.60;99.90
2220;DHT22;1116;51.502;7.414;2024-02-04T13:48:53;11.60;99.90
2220;DHT22;1116;51.502;7.414;2024-02-04T13:52:15;11.60;99.90
2220;DHT22;1116;51.502;7.414;2024-02-04T13:54:59;11.70;99.90
2220;DHT22;1116;51.502;7.414;2024-02-04T13:57:29;11.70;99.90
2220;DHT22;1116;51.502;7.414;2024-02-04T13:59:58;11.70;99.90
2220;DHT22;1116;51.502;7.414;2024-02-04T14:02:30;11.60;99.90
2220;DHT22;1116;51.502;7.414;2024-02-04T14:05:03;11.70;99.90
2220;DHT22;1116;51.502;7.414;2024-02-04T14:07:34;11.80;99.90
2220;DHT22;1116;51.502;7.414;2024-02-04T14:10:19;11.70;99.90
2220;DHT22;1116;51.502;7.414;2024-02-04T14:13:00;11.60;99.90
2220;DHT22;1116;51.502;7.414;2024-02-04T14:15:37;11.50;99.90
2220;DHT22;1116;51.502;7.414;2024-02-04T14:18:07;11.50;99.90
2220;DHT22;1116;51.502;7.414;2024-02-04T14:20:39;11.50;99.90
2220;DHT22;1116;51.502;7.414;2024-02-04T14:23:09;11.50;99.90
2220;DHT22;1116;51.502;7.414;2024-02-04T14:25:38;11.50;99.90
2220;DHT22;1116;51.502;7.414;2024-02-04T14:28:09;11.80;99.90
2220;DHT22;1116;51.502;7.414;2024-02-04T14:30:39;11.60;99.90
2220;DHT22;1116;51.502;7.414;2024-02-04T14:33:08;11.60;99.90
2220;DHT22;1116;51.502;7.414;2024-02-04T14:35:42;11.60;99.90
2220;DHT22;1116;51.502;7.414;2024-02-04T14:38:11;11.50;99.90
2220;DHT22;1116;51.502;7.414;2024-02-04T14:40:41;11.60;99.90
2220;DHT22;1116;51.502;7.414;2024-02-04T14:43:12;11.60;99.90
2220;DHT22;1116;51.502;7.414;2024-02-04T14:45:44;11.10;99.90
2220;DHT22;1116;51.502;7.414;2024-02-04T14:48:14;11.60;99.90
2220;DHT22;1116;51.502;7.414;2024-02-04T14:50:47;11.60;99.90
2220;DHT22;1116;51.502;7.414;2024-02-04T14:53:17;11.50;99.90
2220;DHT22;1116;51.502;7.414;2024-02-04T14:55:47;11.50;99.90
2220;DHT22;1116;51.502;7.414;2024-02-04T14:58:17;11.50;99.90
2220;DHT22;1116;51.502;7.414;2024-02-04T15:00:48;11.50;99.90
2220;DHT22;1116;51.502;7.414;2024-02-04T15:03:16;11.60;99.90
2220;DHT22;1116;51.502;7.414;2024-02-04T15:05:48;11.50;99.90
2220;DHT22;1116;51.502;7.414;2024-02-04T15:08:18;11.50;99.90
2220;DHT22;1116;51.502;7.414;2024-02-04T15:10:48;11.60;99.90
2220;DHT22;1116;51.502;7.414;2024-02-04T15:13:18;11.60;99.90
2220;DHT22;1116;51.502;7.414;2024-02-04T15:15:48;11.50;99.90
2220;DHT22;1116;51.502;7.414;2024-02-04T15:18:18;11.50;99.90
2220;DHT22;1116;51.502;7.414;2024-02-04T15:20:50;11.40;99.90
2220;DHT22;1116;51.502;7.414;2024-02-04T15:23:20;11.40;99.90
2220;DHT22;1116;51.502;7.414;2024-02-04T15:25:53;11.50;99.90
2220;DHT22;1116;51.502;7.414;2024-02-04T15:28:23;11.40;99.90
2220;DHT22;1116;51.502;7.414;2024-02-04T15:30:53;11.30;99.90
2220;DHT22;1116;51.502;7.414;2024-02-04T15:33:24;11.40;99.90
2220;DHT22;1116;51.502;7.414;2024-02-04T15:35:58;11.40;99.90
2220;DHT22;1116;51.502;7.414;2024-02-04T15:38:30;11.30;99.90
2220;DHT22;1116;51.502;7.414;2024-02-04T15:41:00;11.30;99.90
2220;DHT22;1116;51.502;7.414;2024-02-04T15:43:36;11.40;99.90
2220;DHT22;1116;51.502;7.414;2024-02-04T15:46:07;11.40;99.90
2220;DHT22;1116;51.502;7.414;2024-02-04T15:48:37;11.40;99.90
2220;DHT22;1116;51.502;7.414;2024-02-04T15:51:10;11.50;99.90
2220;DHT22;1116;51.502;7.414;2024-02-04T15:53:42;11.50;99.90
2220;DHT22;1116;51.502;7.414;2024-02-04T15:56:13;11.40;99.90
2220;DHT22;1116;51.502;7.414;2024-02-04T15:58:46;11.40;99.90
2220;DHT22;1116;51.502;7.414;2024-02-04T16:01:16;11.50;99.90
2220;DHT22;1116;51.502;7.414;2024-02-04T16:03:48;11.40;99.90
2220;DHT22;1116;51.502;7.414;2024-02-04T16:06:23;11.30;99.90
2220;DHT22;1116;51.502;7.414;2024-02-04T16:08:53;11.30;99.90
2220;DHT22;1116;51.502;7.414;2024-02-04T16:11:24;11.40;99.90
2220;DHT22;1116;51.502;7.414;2024-02-04T16:13:55;11.30;99.90
2220;DHT22;1116;51.502;7.414;2024-02-04T16:16:30;11.30;99.90
2220;DHT22;1116;51.502;7.414;2024-02-04T16:19:04;11.30;99.90
2220;DHT22;1116;51.502;7.414;2024-02-04T16:21:39;11.30;99.90
2220;DHT22;1116;51.502;7.414;2024-02-04T16:24:11;11.30;99.90
2220;DHT22;1116;51.502;7.414;2024-02-04T16:26:40;11.40;99.90
2220;DHT22;1116;51.502;7.414;2024-02-04T16:29:10;11.30;99.90
2220;DHT22;1116;51.502;7.414;2024-02-04T16:31:40;11.20;99.90
2220;DHT22;1116;51.502;7.414;2024-02-04T16:34:10;11.20;99.90